Time;durP1;ratioP1;P1;durP2;ratioP2;P2;SDS_P1;SDS_P2;PMS_P1;PMS_P2;Temp;Humidity;BMP_temperature;BMP_pressure;BME280_temperature;BME280_humidity;BME280_pressure;Samples;Min_cycle;Max_cycle;Signal;HPM_P1;HPM_P2
2024/01/23 00:01:11;;;;;;;;;;;-2.70;87.40;;;;;;5006241;28;87027;-46
2024/01/23 00:03:36;;;;;;;;;;;-2.80;87.30;;;;;;5008357;28;86799;-47
2024/01/23 00:06:02;;;;;;;;;;;-2.70;87.30;;;;;;4999094;28;87018;-48
2024/01/23 00:08:28;;;;;;;;;;;-2.80;87.40;;;;;;5005707;28;87917;-46
2024/01/23 00:10:53;;;;;;;;;;;-2.80;87.30;;;;;;5005503;28;88445;-49
2024/01/23 00:13:19;;;;;;;;;;;-2.80;87.40;;;;;;5006131;28;87007;-46
2024/01/23 00:15:44;;;;;;;;;;;-2.80;87.40;;;;;;5006474;28;86903;-47
2024/01/23 00:18:10;;;;;;;;;;;-2.80;87.50;;;;;;5005382;28;87514;-46
2024/01/23 00:20:36;;;;;;;;;;;-2.80;87.40;;;;;;5006044;28;87502;-48
2024/01/23 00:23:01;;;;;;;;;;;-2.80;87.40;;;;;;5006240;28;86848;-45
2024/01/23 00:25:27;;;;;;;;;;;-2.80;87.40;;;;;;5008475;28;87639;-47
2024/01/23 00:27:52;;;;;;;;;;;-2.80;87.50;;;;;;5006060;28;86905;-47
2024/01/23 00:30:18;;;;;;;;;;;-2.90;87.40;;;;;;5001330;28;87300;-47
2024/01/23 00:32:44;;;;;;;;;;;-2.80;87.40;;;;;;5003831;28;87276;-46
2024/01/23 00:35:09;;;;;;;;;;;-2.90;87.40;;;;;;5004482;28;87906;-47
2024/01/23 00:37:35;;;;;;;;;;;-2.80;87.40;;;;;;5005178;28;88456;-46
2024/01/23 00:40:02;;;;;;;;;;;-2.90;87.40;;;;;;5005941;28;87306;-46
2024/01/23 00:42:27;;;;;;;;;;;-2.90;87.30;;;;;;5004518;28;88236;-47
2024/01/23 00:44:53;;;;;;;;;;;-2.90;87.40;;;;;;5003082;28;87564;-47
2024/01/23 00:47:19;;;;;;;;;;;-2.90;87.30;;;;;;5008353;28;87264;-46
2024/01/23 00:49:45;;;;;;;;;;;-2.90;87.40;;;;;;5005642;28;87549;-47
2024/01/23 00:52:11;;;;;;;;;;;-2.90;87.40;;;;;;5008667;28;86207;-46
2024/01/23 00:54:36;;;;;;;;;;;-3.00;87.40;;;;;;5008876;28;86903;-46
2024/01/23 00:57:05;;;;;;;;;;;-2.90;87.40;;;;;;5008907;28;87464;-47
2024/01/23 00:59:31;;;;;;;;;;;-3.00;87.30;;;;;;5003870;28;88025;-47
2024/01/23 01:01:56;;;;;;;;;;;-3.00;87.30;;;;;;5008881;28;88860;-47
2024/01/23 01:04:22;;;;;;;;;;;-3.00;87.40;;;;;;5008175;28;87467;-46
2024/01/23 01:06:47;;;;;;;;;;;-3.00;87.30;;;;;;5006728;28;87029;-46
2024/01/23 01:09:13;;;;;;;;;;;-3.00;87.30;;;;;;5007695;28;87511;-48
2024/01/23 01:11:39;;;;;;;;;;;-3.00;87.40;;;;;;5008839;28;87128;-48
2024/01/23 01:14:04;;;;;;;;;;;-3.00;87.40;;;;;;5007807;28;86898;-45
2024/01/23 01:16:30;;;;;;;;;;;-3.00;87.30;;;;;;5009200;28;86853;-47
2024/01/23 01:18:57;;;;;;;;;;;-3.00;87.30;;;;;;5008380;28;87032;-46
2024/01/23 01:21:22;;;;;;;;;;;-3.10;87.30;;;;;;5008210;28;86899;-46
2024/01/23 01:23:48;;;;;;;;;;;-3.10;87.30;;;;;;5006681;28;89420;-47
2024/01/23 01:26:14;;;;;;;;;;;-3.10;87.30;;;;;;5008827;28;86983;-48
2024/01/23 01:28:39;;;;;;;;;;;-3.10;87.20;;;;;;5011263;28;86951;-46
2024/01/23 01:31:05;;;;;;;;;;;-3.10;87.20;;;;;;5008649;28;86970;-48
2024/01/23 01:33:30;;;;;;;;;;;-3.10;87.20;;;;;;5008055;28;87736;-47
2024/01/23 01:35:56;;;;;;;;;;;-3.10;87.20;;;;;;5007138;28;87429;-46
2024/01/23 01:38:21;;;;;;;;;;;-3.10;87.20;;;;;;5007553;28;87038;-47
2024/01/23 01:40:47;;;;;;;;;;;-3.10;87.20;;;;;;5008011;28;86770;-46
2024/01/23 01:43:23;;;;;;;;;;;-3.10;87.20;;;;;;5007691;28;87503;-47
2024/01/23 01:45:59;;;;;;;;;;;-3.10;87.20;;;;;;5008292;28;87288;-46
2024/01/23 01:48:26;;;;;;;;;;;-3.10;87.20;;;;;;5006582;28;88040;-48
2024/01/23 01:50:51;;;;;;;;;;;-3.10;87.20;;;;;;5007117;28;88923;-48
2024/01/23 01:53:17;;;;;;;;;;;-3.10;87.20;;;;;;5007769;28;87932;-46
2024/01/23 01:55:43;;;;;;;;;;;-3.20;87.10;;;;;;5006504;28;87280;-47
2024/01/23 01:58:09;;;;;;;;;;;-3.20;87.10;;;;;;5008206;28;87009;-47
2024/01/23 02:00:35;;;;;;;;;;;-3.20;87.10;;;;;;5007555;28;88076;-46
2024/01/23 02:03:00;;;;;;;;;;;-3.20;87.10;;;;;;5006429;28;86891;-46
2024/01/23 02:05:26;;;;;;;;;;;-3.20;87.00;;;;;;5008144;28;86346;-46
2024/01/23 02:07:52;;;;;;;;;;;-3.20;87.10;;;;;;5008185;28;86984;-46
2024/01/23 02:10:18;;;;;;;;;;;-3.20;87.10;;;;;;5003490;28;88274;-47
2024/01/23 02:12:44;;;;;;;;;;;-3.30;87.10;;;;;;5010193;28;87953;-49
2024/01/23 02:15:09;;;;;;;;;;;-3.20;87.20;;;;;;5007842;28;87426;-47
2024/01/23 02:17:35;;;;;;;;;;;-3.20;87.20;;;;;;5008006;28;86984;-47
2024/01/23 02:20:00;;;;;;;;;;;-3.30;87.10;;;;;;5006225;28;86994;-46
2024/01/23 02:22:26;;;;;;;;;;;-3.30;87.10;;;;;;5007587;28;87482;-46
2024/01/23 02:24:51;;;;;;;;;;;-3.20;87.10;;;;;;5007696;28;87132;-47
2024/01/23 02:27:17;;;;;;;;;;;-3.30;87.00;;;;;;5007439;28;88004;-48
2024/01/23 02:29:42;;;;;;;;;;;-3.30;87.00;;;;;;5007856;28;86778;-47
2024/01/23 02:32:08;;;;;;;;;;;-3.30;87.10;;;;;;5007789;28;87198;-46
2024/01/23 02:34:33;;;;;;;;;;;-3.30;87.10;;;;;;5009939;28;87137;-47
2024/01/23 02:37:00;;;;;;;;;;;-3.30;87.10;;;;;;5003152;28;89440;-47
2024/01/23 02:39:27;;;;;;;;;;;-3.30;87.10;;;;;;5007383;28;87627;-46
2024/01/23 02:41:53;;;;;;;;;;;-3.40;87.00;;;;;;5007256;28;86841;-47
2024/01/23 02:44:18;;;;;;;;;;;-3.40;87.00;;;;;;5007522;28;87447;-46
2024/01/23 02:46:44;;;;;;;;;;;-3.30;87.10;;;;;;5007436;28;86983;-47
2024/01/23 02:49:09;;;;;;;;;;;-3.40;87.10;;;;;;5007325;28;87530;-47
2024/01/23 02:51:35;;;;;;;;;;;-3.40;87.00;;;;;;5006787;28;86863;-47
2024/01/23 02:54:01;;;;;;;;;;;-3.40;87.00;;;;;;5007675;28;87812;-46
2024/01/23 02:56:26;;;;;;;;;;;-3.40;87.00;;;;;;5009774;28;87545;-46
2024/01/23 02:58:52;;;;;;;;;;;-3.40;87.00;;;;;;5007107;28;88090;-47
2024/01/23 03:01:17;;;;;;;;;;;-3.40;87.00;;;;;;5006000;28;88924;-46
2024/01/23 03:03:43;;;;;;;;;;;-3.40;87.00;;;;;;5006815;28;87058;-46
2024/01/23 03:06:09;;;;;;;;;;;-3.40;87.00;;;;;;5006345;28;87100;-46
2024/01/23 03:08:34;;;;;;;;;;;-3.40;87.00;;;;;;5006396;28;87504;-46
2024/01/23 03:11:00;;;;;;;;;;;-3.50;86.90;;;;;;5007224;28;86931;-47
2024/01/23 03:13:25;;;;;;;;;;;-3.40;87.00;;;;;;5006979;28;86997;-46
2024/01/23 03:15:52;;;;;;;;;;;-3.50;86.90;;;;;;5009695;28;87580;-47
2024/01/23 03:18:18;;;;;;;;;;;-3.50;86.90;;;;;;5006910;28;87856;-46
2024/01/23 03:20:44;;;;;;;;;;;-3.50;87.00;;;;;;5006001;28;88446;-46
2024/01/23 03:23:10;;;;;;;;;;;-3.50;86.90;;;;;;5007083;28;87005;-47
2024/01/23 03:25:35;;;;;;;;;;;-3.50;86.90;;;;;;5005974;28;88025;-49
2024/01/23 03:28:01;;;;;;;;;;;-3.50;86.90;;;;;;5006094;28;88461;-46
2024/01/23 03:30:28;;;;;;;;;;;-3.50;86.90;;;;;;5006772;28;87032;-46
2024/01/23 03:32:53;;;;;;;;;;;-3.60;86.90;;;;;;5006592;28;87934;-47
2024/01/23 03:35:19;;;;;;;;;;;-3.50;86.90;;;;;;5006379;28;87699;-47
2024/01/23 03:37:45;;;;;;;;;;;-3.60;86.90;;;;;;5008949;28;88978;-47
2024/01/23 03:40:10;;;;;;;;;;;-3.50;86.90;;;;;;5006165;28;87597;-46
2024/01/23 03:42:36;;;;;;;;;;;-3.60;86.80;;;;;;5003151;28;86164;-46
2024/01/23 03:45:02;;;;;;;;;;;-3.60;86.80;;;;;;5006225;28;86991;-46
2024/01/23 03:47:28;;;;;;;;;;;-3.60;86.80;;;;;;5006373;28;87520;-47
2024/01/23 03:49:54;;;;;;;;;;;-3.60;86.80;;;;;;5006137;28;87967;-46
2024/01/23 03:52:19;;;;;;;;;;;-3.60;86.80;;;;;;5004379;28;87631;-46
2024/01/23 03:54:45;;;;;;;;;;;-3.60;86.90;;;;;;5006052;28;88590;-45
2024/01/23 03:57:10;;;;;;;;;;;-3.60;86.80;;;;;;5006088;28;87052;-47
2024/01/23 03:59:36;;;;;;;;;;;-3.60;86.80;;;;;;5008568;28;86996;-47
2024/01/23 04:02:02;;;;;;;;;;;-3.60;86.90;;;;;;5006345;28;87045;-46
2024/01/23 04:04:27;;;;;;;;;;;-3.60;86.90;;;;;;5006386;28;86908;-47
2024/01/23 04:06:53;;;;;;;;;;;-3.70;86.80;;;;;;5005785;28;86908;-47
2024/01/23 04:09:19;;;;;;;;;;;-3.70;86.80;;;;;;5005321;28;86989;-47
2024/01/23 04:11:45;;;;;;;;;;;-3.70;86.80;;;;;;5003679;28;87116;-46
2024/01/23 04:14:11;;;;;;;;;;;-3.70;86.80;;;;;;5004850;28;89474;-48
2024/01/23 04:16:36;;;;;;;;;;;-3.70;86.80;;;;;;5006296;28;86983;-46
2024/01/23 04:19:02;;;;;;;;;;;-3.70;86.80;;;;;;5006389;28;86962;-46
2024/01/23 04:21:28;;;;;;;;;;;-3.70;86.80;;;;;;5007521;28;87549;-46
2024/01/23 04:23:53;;;;;;;;;;;-3.70;86.80;;;;;;5006364;28;86888;-47
2024/01/23 04:26:19;;;;;;;;;;;-3.70;86.80;;;;;;5009277;28;87657;-46
2024/01/23 04:28:46;;;;;;;;;;;-3.70;86.80;;;;;;5005892;28;86987;-46
2024/01/23 04:31:12;;;;;;;;;;;-3.80;86.70;;;;;;5009833;28;88079;-46
2024/01/23 04:33:37;;;;;;;;;;;-3.80;86.70;;;;;;5009332;28;87551;-47
2024/01/23 04:36:03;;;;;;;;;;;-3.80;86.70;;;;;;5009119;28;87077;-46
2024/01/23 04:38:29;;;;;;;;;;;-3.80;86.70;;;;;;5006134;28;87890;-50
2024/01/23 04:40:54;;;;;;;;;;;-3.80;86.70;;;;;;5008240;28;87882;-46
2024/01/23 04:43:20;;;;;;;;;;;-3.80;86.70;;;;;;5011290;28;87477;-47
2024/01/23 04:45:45;;;;;;;;;;;-3.80;86.70;;;;;;5009323;28;87525;-47
2024/01/23 04:48:11;;;;;;;;;;;-3.80;86.70;;;;;;5009030;28;87011;-47
2024/01/23 04:50:37;;;;;;;;;;;-3.90;86.60;;;;;;5009339;28;86958;-48
2024/01/23 04:53:03;;;;;;;;;;;-3.80;87.30;;;;;;5006134;28;87532;-46
2024/01/23 04:55:28;;;;;;;;;;;-3.80;86.70;;;;;;5007235;28;86120;-46
2024/01/23 04:57:54;;;;;;;;;;;-3.80;86.70;;;;;;5008799;28;86946;-46
2024/01/23 05:00:20;;;;;;;;;;;-3.90;86.70;;;;;;5008238;28;87350;-47
2024/01/23 05:02:45;;;;;;;;;;;-3.90;86.70;;;;;;5007775;28;87888;-46
2024/01/23 05:05:11;;;;;;;;;;;-3.90;86.70;;;;;;5010550;28;87726;-45
2024/01/23 05:07:36;;;;;;;;;;;-3.90;86.70;;;;;;5007702;28;87012;-46
2024/01/23 05:10:04;;;;;;;;;;;-3.90;86.60;;;;;;5008562;28;87583;-46
2024/01/23 05:12:30;;;;;;;;;;;-3.90;86.70;;;;;;5007572;28;88500;-47
2024/01/23 05:14:55;;;;;;;;;;;-3.90;86.70;;;;;;5008551;28;87013;-46
2024/01/23 05:17:21;;;;;;;;;;;-3.90;86.70;;;;;;5009048;28;86994;-47
2024/01/23 05:19:46;;;;;;;;;;;-3.90;86.70;;;;;;5009698;28;86773;-47
2024/01/23 05:22:12;;;;;;;;;;;-3.90;86.70;;;;;;5003640;28;87014;-47
2024/01/23 05:24:38;;;;;;;;;;;-4.00;86.60;;;;;;5010717;28;86951;-46
2024/01/23 05:27:03;;;;;;;;;;;-4.00;86.60;;;;;;5007509;28;87973;-47
2024/01/23 05:29:29;;;;;;;;;;;-4.00;86.60;;;;;;5006637;28;87679;-46
2024/01/23 05:31:54;;;;;;;;;;;-4.00;86.60;;;;;;5008172;28;88392;-46
2024/01/23 05:34:20;;;;;;;;;;;-4.00;86.60;;;;;;5008837;28;87065;-46
2024/01/23 05:36:45;;;;;;;;;;;-4.00;86.70;;;;;;5007105;28;86972;-46
2024/01/23 05:39:12;;;;;;;;;;;-4.00;86.70;;;;;;5001757;28;87251;-45
2024/01/23 05:41:37;;;;;;;;;;;-4.00;86.70;;;;;;5008218;28;87087;-46
2024/01/23 05:44:03;;;;;;;;;;;-4.00;86.70;;;;;;5008531;28;86133;-46
2024/01/23 05:46:28;;;;;;;;;;;-4.10;86.60;;;;;;5010824;28;88572;-47
2024/01/23 05:48:54;;;;;;;;;;;-4.10;86.60;;;;;;5008239;28;87904;-47
2024/01/23 05:51:20;;;;;;;;;;;-4.10;87.20;;;;;;5007547;28;87880;-46
2024/01/23 05:53:45;;;;;;;;;;;-4.10;86.60;;;;;;5007115;28;86945;-45
2024/01/23 05:56:11;;;;;;;;;;;-4.10;86.60;;;;;;5007879;28;86892;-46
2024/01/23 05:58:36;;;;;;;;;;;-4.10;86.60;;;;;;5006671;28;87177;-47
2024/01/23 06:01:02;;;;;;;;;;;-4.10;86.50;;;;;;5008362;28;86945;-48
2024/01/23 06:03:27;;;;;;;;;;;-4.10;86.50;;;;;;5008263;28;86855;-47
2024/01/23 06:05:53;;;;;;;;;;;-4.10;86.60;;;;;;5007854;28;87392;-47
2024/01/23 06:08:18;;;;;;;;;;;-4.10;86.60;;;;;;5007141;28;86301;-46
2024/01/23 06:10:44;;;;;;;;;;;-4.20;86.60;;;;;;5007544;28;87755;-46
2024/01/23 06:13:10;;;;;;;;;;;-4.20;86.60;;;;;;5007978;28;86977;-46
2024/01/23 06:15:36;;;;;;;;;;;-4.20;86.60;;;;;;5006860;28;87995;-45
2024/01/23 06:18:02;;;;;;;;;;;-4.20;86.60;;;;;;5007337;28;88719;-46
2024/01/23 06:20:28;;;;;;;;;;;-4.20;86.60;;;;;;5007878;28;86971;-47
2024/01/23 06:22:53;;;;;;;;;;;-4.20;86.60;;;;;;5007531;28;86998;-46
2024/01/23 06:25:19;;;;;;;;;;;-4.20;86.50;;;;;;5006742;28;87498;-46
2024/01/23 06:27:44;;;;;;;;;;;-4.20;86.50;;;;;;5007137;28;87061;-47
2024/01/23 06:30:11;;;;;;;;;;;-4.20;86.60;;;;;;5009755;28;87725;-47
2024/01/23 06:32:37;;;;;;;;;;;-4.20;86.50;;;;;;5008108;28;86422;-47
2024/01/23 06:35:04;;;;;;;;;;;-4.20;86.60;;;;;;5006743;28;86986;-45
2024/01/23 06:37:29;;;;;;;;;;;-4.20;86.60;;;;;;5005929;28;88375;-46
2024/01/23 06:39:55;;;;;;;;;;;-4.20;86.60;;;;;;5005231;28;88123;-45
2024/01/23 06:42:20;;;;;;;;;;;-4.30;86.50;;;;;;5005925;28;87545;-47
2024/01/23 06:44:46;;;;;;;;;;;-4.30;87.10;;;;;;5007372;28;86953;-46
2024/01/23 06:47:11;;;;;;;;;;;-4.30;86.50;;;;;;5006671;28;86988;-46
2024/01/23 06:49:37;;;;;;;;;;;-4.30;86.60;;;;;;5006960;28;87268;-47
2024/01/23 06:52:03;;;;;;;;;;;-4.30;86.50;;;;;;5009724;28;88553;-46
2024/01/23 06:54:29;;;;;;;;;;;-4.30;86.50;;;;;;5006420;28;87675;-48
2024/01/23 06:56:54;;;;;;;;;;;-4.30;86.50;;;;;;5007255;28;86824;-49
2024/01/23 06:59:20;;;;;;;;;;;-4.30;86.60;;;;;;5007034;28;86961;-47
2024/01/23 07:01:45;;;;;;;;;;;-4.30;86.60;;;;;;5007494;28;87031;-46
2024/01/23 07:04:11;;;;;;;;;;;-4.30;86.60;;;;;;5006010;28;88436;-46
2024/01/23 07:06:36;;;;;;;;;;;-4.30;86.60;;;;;;5007241;28;87903;-46
2024/01/23 07:09:04;;;;;;;;;;;-4.30;86.60;;;;;;5006263;28;88266;-46
2024/01/23 07:11:30;;;;;;;;;;;-4.40;86.60;;;;;;5005640;28;88877;-46
2024/01/23 07:13:55;;;;;;;;;;;-4.30;87.10;;;;;;5009289;28;86862;-46
2024/01/23 07:16:21;;;;;;;;;;;-4.30;86.60;;;;;;5005810;28;88441;-46
2024/01/23 07:18:46;;;;;;;;;;;-4.40;86.50;;;;;;5007002;28;87743;-45
2024/01/23 07:21:12;;;;;;;;;;;-4.30;86.50;;;;;;5007129;28;86721;-46
2024/01/23 07:23:38;;;;;;;;;;;-4.40;86.50;;;;;;5006634;28;88155;-46
2024/01/23 07:26:04;;;;;;;;;;;-4.30;86.60;;;;;;5005739;28;86972;-46
2024/01/23 07:28:30;;;;;;;;;;;-4.40;86.50;;;;;;5005939;28;87816;-47
2024/01/23 07:30:55;;;;;;;;;;;-4.40;86.50;;;;;;5006569;28;87285;-46
2024/01/23 07:33:21;;;;;;;;;;;-4.40;86.50;;;;;;5009141;28;87052;-46
2024/01/23 07:35:46;;;;;;;;;;;-4.30;86.60;;;;;;5006317;28;88609;-47
2024/01/23 07:38:12;;;;;;;;;;;-4.30;86.50;;;;;;5006627;28;87000;-46
2024/01/23 07:40:38;;;;;;;;;;;-4.40;86.60;;;;;;5002287;28;87078;-46
2024/01/23 07:43:03;;;;;;;;;;;-4.40;86.50;;;;;;5005536;28;88598;-46
2024/01/23 07:45:29;;;;;;;;;;;-4.40;86.50;;;;;;5006086;28;86120;-46
2024/01/23 07:47:55;;;;;;;;;;;-4.40;86.50;;;;;;5006732;28;87428;-45
2024/01/23 07:50:21;;;;;;;;;;;-4.40;86.60;;;;;;5005521;28;87599;-46
2024/01/23 07:52:46;;;;;;;;;;;-4.40;86.50;;;;;;5006115;28;87971;-47
2024/01/23 07:55:12;;;;;;;;;;;-4.40;86.40;;;;;;5008071;28;86867;-45
2024/01/23 07:57:37;;;;;;;;;;;-4.40;86.50;;;;;;5005636;28;87718;-45
2024/01/23 08:00:04;;;;;;;;;;;-4.40;86.50;;;;;;5007366;28;88003;-46
2024/01/23 08:02:30;;;;;;;;;;;-4.40;86.40;;;;;;5009482;28;88582;-47
2024/01/23 08:04:55;;;;;;;;;;;-4.40;86.50;;;;;;5009503;28;87084;-46
2024/01/23 08:07:21;;;;;;;;;;;-4.40;86.60;;;;;;5010065;28;87285;-46
2024/01/23 08:09:46;;;;;;;;;;;-4.40;86.60;;;;;;5008983;28;87698;-46
2024/01/23 08:12:13;;;;;;;;;;;-4.40;86.60;;;;;;5009468;28;87000;-48
2024/01/23 08:14:38;;;;;;;;;;;-4.40;86.60;;;;;;5009991;28;86919;-46
2024/01/23 08:17:04;;;;;;;;;;;-4.40;86.60;;;;;;5011460;28;88618;-45
2024/01/23 08:19:30;;;;;;;;;;;-4.40;86.50;;;;;;5009849;28;87732;-47
2024/01/23 08:21:55;;;;;;;;;;;-4.40;86.60;;;;;;5008992;28;89029;-46
2024/01/23 08:24:21;;;;;;;;;;;-4.40;86.70;;;;;;5008928;28;87078;-47
2024/01/23 08:26:47;;;;;;;;;;;-4.40;86.60;;;;;;5007366;28;88031;-47
2024/01/23 08:29:13;;;;;;;;;;;-4.40;86.60;;;;;;5009231;28;87041;-46
2024/01/23 08:31:38;;;;;;;;;;;-4.40;86.70;;;;;;5008536;28;87085;-47
2024/01/23 08:34:04;;;;;;;;;;;-4.40;86.70;;;;;;5009805;28;87795;-47
2024/01/23 08:36:30;;;;;;;;;;;-4.40;86.90;;;;;;5008839;28;87485;-45
2024/01/23 08:38:55;;;;;;;;;;;-4.40;86.90;;;;;;5012200;28;87151;-46
2024/01/23 08:41:21;;;;;;;;;;;-4.40;86.90;;;;;;5001896;28;88317;-45
2024/01/23 08:43:47;;;;;;;;;;;-4.40;86.90;;;;;;5009584;28;86954;-47
2024/01/23 08:46:13;;;;;;;;;;;-4.40;87.00;;;;;;5009060;28;87872;-46
2024/01/23 08:48:39;;;;;;;;;;;-4.40;87.00;;;;;;5007871;28;87458;-46
2024/01/23 08:51:04;;;;;;;;;;;-4.40;87.00;;;;;;5008208;28;87024;-47
2024/01/23 08:53:30;;;;;;;;;;;-4.50;87.20;;;;;;5008789;28;87782;-47
2024/01/23 08:55:56;;;;;;;;;;;-4.50;87.20;;;;;;5007715;28;88560;-46
2024/01/23 08:58:22;;;;;;;;;;;-4.50;87.30;;;;;;5008342;28;86241;-46
2024/01/23 09:00:48;;;;;;;;;;;-4.50;87.30;;;;;;5011710;28;87042;-45
2024/01/23 09:03:13;;;;;;;;;;;-4.50;87.30;;;;;;5009246;28;86996;-46
2024/01/23 09:05:39;;;;;;;;;;;-4.50;87.30;;;;;;5008274;28;88028;-45
2024/01/23 09:08:05;;;;;;;;;;;-4.50;88.10;;;;;;5008766;28;87299;-46
2024/01/23 09:10:30;;;;;;;;;;;-4.50;87.50;;;;;;5007898;28;87072;-46
2024/01/23 09:12:56;;;;;;;;;;;-4.50;87.60;;;;;;5009130;28;87028;-46
2024/01/23 09:15:21;;;;;;;;;;;-4.50;87.70;;;;;;5008605;28;88462;-46
2024/01/23 09:17:47;;;;;;;;;;;-4.50;87.60;;;;;;5008808;28;87066;-46
2024/01/23 09:20:12;;;;;;;;;;;-4.50;87.70;;;;;;5011266;28;86919;-46
2024/01/23 09:22:39;;;;;;;;;;;-4.50;87.60;;;;;;5009451;28;86214;-46
2024/01/23 09:25:05;;;;;;;;;;;-4.40;87.70;;;;;;5008780;28;87585;-45
2024/01/23 09:27:31;;;;;;;;;;;-4.50;88.40;;;;;;5007535;28;88468;-45
2024/01/23 09:29:56;;;;;;;;;;;-4.50;87.80;;;;;;5008194;28;87942;-46
2024/01/23 09:32:22;;;;;;;;;;;-4.50;87.80;;;;;;5008582;28;88948;-46
2024/01/23 09:34:48;;;;;;;;;;;-4.40;87.80;;;;;;5008439;28;87487;-45
2024/01/23 09:37:14;;;;;;;;;;;-4.40;87.80;;;;;;5008758;28;87009;-46
2024/01/23 09:39:39;;;;;;;;;;;-4.40;87.70;;;;;;5005818;28;86943;-45
2024/01/23 09:42:05;;;;;;;;;;;-4.40;87.70;;;;;;5010246;28;88517;-45
2024/01/23 09:44:31;;;;;;;;;;;-4.40;87.60;;;;;;5008686;28;86922;-47
2024/01/23 09:46:57;;;;;;;;;;;-4.40;87.50;;;;;;5004078;28;86647;-46
2024/01/23 09:49:24;;;;;;;;;;;-4.40;87.90;;;;;;5008521;28;87006;-46
2024/01/23 09:51:51;;;;;;;;;;;-4.40;87.10;;;;;;5008459;28;86937;-47
2024/01/23 09:54:17;;;;;;;;;;;-4.30;87.00;;;;;;5007104;28;89503;-46
2024/01/23 09:56:43;;;;;;;;;;;-4.30;87.30;;;;;;5005614;28;87071;-46
2024/01/23 09:59:12;;;;;;;;;;;-4.30;87.20;;;;;;5005918;28;87002;-47
2024/01/23 10:01:37;;;;;;;;;;;-4.40;87.40;;;;;;5006821;28;87417;-46
2024/01/23 10:04:04;;;;;;;;;;;-4.30;87.50;;;;;;5009858;28;87097;-46
2024/01/23 10:06:30;;;;;;;;;;;-4.30;87.60;;;;;;5007140;28;87843;-48
2024/01/23 10:08:56;;;;;;;;;;;-4.40;87.70;;;;;;5004243;28;87356;-47
2024/01/23 10:11:21;;;;;;;;;;;-4.30;87.90;;;;;;5006898;28;86187;-46
2024/01/23 10:13:48;;;;;;;;;;;-4.30;87.50;;;;;;5006973;28;88580;-45
2024/01/23 10:16:17;;;;;;;;;;;-4.30;88.20;;;;;;5007282;28;87090;-48
2024/01/23 10:18:46;;;;;;;;;;;-4.30;87.70;;;;;;5007551;28;87817;-46
2024/01/23 10:21:11;;;;;;;;;;;-4.30;87.70;;;;;;5006973;28;87452;-47
2024/01/23 10:23:37;;;;;;;;;;;-4.30;87.80;;;;;;5007089;28;87034;-47
2024/01/23 10:26:06;;;;;;;;;;;-4.30;87.80;;;;;;5010500;28;86899;-47
2024/01/23 10:28:32;;;;;;;;;;;-4.30;87.80;;;;;;5003633;28;87028;-46
2024/01/23 10:30:58;;;;;;;;;;;-4.30;87.90;;;;;;5007842;28;86884;-45
2024/01/23 10:33:24;;;;;;;;;;;-4.30;88.00;;;;;;5007143;28;88696;-48
2024/01/23 10:35:49;;;;;;;;;;;-4.30;87.90;;;;;;5008142;28;86302;-46
2024/01/23 10:38:16;;;;;;;;;;;-4.30;88.00;;;;;;5007066;28;87152;-46
2024/01/23 10:40:42;;;;;;;;;;;-4.30;87.90;;;;;;5000551;28;88610;-45
2024/01/23 10:43:08;;;;;;;;;;;-4.30;88.10;;;;;;5003388;28;88496;-47
2024/01/23 10:45:36;;;;;;;;;;;-4.30;88.20;;;;;;5003066;28;87647;-46
2024/01/23 10:48:02;;;;;;;;;;;-4.30;88.30;;;;;;5008513;28;88539;-47
2024/01/23 10:50:31;;;;;;;;;;;-4.30;88.30;;;;;;5006910;28;86881;-46
2024/01/23 10:53:02;;;;;;;;;;;-4.30;88.30;;;;;;5006038;28;88643;-47
2024/01/23 10:55:28;;;;;;;;;;;-4.20;88.30;;;;;;5007198;28;86952;-46
2024/01/23 10:57:56;;;;;;;;;;;-4.20;88.60;;;;;;5005672;28;87073;-47
2024/01/23 11:00:22;;;;;;;;;;;-4.20;88.20;;;;;;5006314;28;86776;-46
2024/01/23 11:02:56;;;;;;;;;;;-4.20;88.20;;;;;;5007394;28;87014;-45
2024/01/23 11:05:30;;;;;;;;;;;-4.10;88.10;;;;;;5006171;28;87256;-45
2024/01/23 11:07:57;;;;;;;;;;;-4.10;88.10;;;;;;5005552;28;88398;-45
2024/01/23 11:10:36;;;;;;;;;;;-4.20;88.00;;;;;;5009647;28;86894;-45
2024/01/23 11:13:14;;;;;;;;;;;-4.20;88.30;;;;;;5006290;28;87532;-48
2024/01/23 11:15:40;;;;;;;;;;;-4.20;88.50;;;;;;5007141;28;87108;-45
2024/01/23 11:18:22;;;;;;;;;;;-4.20;88.70;;;;;;5005370;28;89445;-45
2024/01/23 11:21:08;;;;;;;;;;;-4.20;88.70;;;;;;5006411;28;88594;-47
2024/01/23 11:23:43;;;;;;;;;;;-4.20;88.50;;;;;;5006796;28;87117;-46
2024/01/23 11:26:16;;;;;;;;;;;-4.20;88.70;;;;;;5006851;28;86233;-47
2024/01/23 11:28:46;;;;;;;;;;;-4.10;88.60;;;;;;5002096;28;88508;-47
2024/01/23 11:31:13;;;;;;;;;;;-4.10;88.80;;;;;;5009614;28;87096;-48
2024/01/23 11:33:38;;;;;;;;;;;-4.10;88.70;;;;;;5005912;28;88587;-45
2024/01/23 11:36:07;;;;;;;;;;;-4.10;88.70;;;;;;5005906;28;87089;-46
2024/01/23 11:38:47;;;;;;;;;;;-4.10;89.00;;;;;;5002391;28;86963;-46
2024/01/23 11:41:22;;;;;;;;;;;-4.10;88.80;;;;;;5003415;28;87546;-46
2024/01/23 11:43:49;;;;;;;;;;;-4.10;89.00;;;;;;5003732;28;87678;-47
2024/01/23 11:46:17;;;;;;;;;;;-4.10;88.90;;;;;;5006574;28;87010;-46
2024/01/23 11:48:44;;;;;;;;;;;-4.10;88.90;;;;;;5005999;28;87463;-47
2024/01/23 11:51:12;;;;;;;;;;;-4.10;89.00;;;;;;5003654;28;86220;-46
2024/01/23 11:53:39;;;;;;;;;;;-4.10;89.20;;;;;;5009166;28;86992;-45
2024/01/23 11:56:05;;;;;;;;;;;-4.10;89.20;;;;;;5006705;28;87258;-46
2024/01/23 11:58:31;;;;;;;;;;;-4.00;89.10;;;;;;5002591;28;88663;-46
2024/01/23 12:00:57;;;;;;;;;;;-4.00;89.10;;;;;;5005786;28;88617;-47
2024/01/23 12:03:22;;;;;;;;;;;-4.00;89.20;;;;;;5005711;28;87117;-47
2024/01/23 12:05:50;;;;;;;;;;;-4.00;89.30;;;;;;5005638;28;86966;-46
2024/01/23 12:08:16;;;;;;;;;;;-4.00;89.30;;;;;;5004553;28;87478;-47
2024/01/23 12:10:42;;;;;;;;;;;-4.00;89.60;;;;;;5006096;28;87641;-46
2024/01/23 12:13:08;;;;;;;;;;;-4.00;89.70;;;;;;5005320;28;86919;-46
2024/01/23 12:15:33;;;;;;;;;;;-4.00;89.60;;;;;;5009379;28;86694;-46
2024/01/23 12:17:59;;;;;;;;;;;-4.00;89.60;;;;;;5001748;28;87859;-48
2024/01/23 12:20:25;;;;;;;;;;;-4.10;89.80;;;;;;5004371;28;87572;-49
2024/01/23 12:22:51;;;;;;;;;;;-4.00;89.60;;;;;;5005384;28;87942;-46
2024/01/23 12:25:17;;;;;;;;;;;-4.00;89.90;;;;;;5002409;28;87507;-45
2024/01/23 12:27:42;;;;;;;;;;;-4.00;89.90;;;;;;5002948;28;88465;-46
2024/01/23 12:30:15;;;;;;;;;;;-4.00;89.90;;;;;;5005525;28;87064;-46
2024/01/23 12:32:41;;;;;;;;;;;-4.00;90.00;;;;;;5003131;28;86912;-46
2024/01/23 12:35:07;;;;;;;;;;;-4.00;90.00;;;;;;5003441;28;88636;-46
2024/01/23 12:37:32;;;;;;;;;;;-3.90;90.00;;;;;;5008404;28;87447;-47
2024/01/23 12:40:07;;;;;;;;;;;-3.90;89.80;;;;;;5005197;28;86818;-47
2024/01/23 12:42:33;;;;;;;;;;;-3.90;89.50;;;;;;5003682;28;87927;-47
2024/01/23 12:44:59;;;;;;;;;;;-3.90;89.80;;;;;;5004873;28;87984;-45
2024/01/23 12:47:24;;;;;;;;;;;-3.90;89.60;;;;;;5008375;28;88506;-46
2024/01/23 12:49:50;;;;;;;;;;;-3.90;90.00;;;;;;5009354;28;86981;-46
2024/01/23 12:52:16;;;;;;;;;;;-3.90;89.90;;;;;;5008825;28;86987;-48
2024/01/23 12:54:44;;;;;;;;;;;-3.80;90.00;;;;;;5008850;28;88636;-47
2024/01/23 12:57:13;;;;;;;;;;;-3.80;90.00;;;;;;5007062;28;87001;-49
2024/01/23 12:59:39;;;;;;;;;;;-3.80;89.90;;;;;;5008744;28;87788;-46
2024/01/23 13:02:06;;;;;;;;;;;-3.80;89.90;;;;;;5007626;28;87448;-46
2024/01/23 13:04:31;;;;;;;;;;;-3.80;90.00;;;;;;5006888;28;86650;-47
2024/01/23 13:06:57;;;;;;;;;;;-3.80;90.00;;;;;;5008058;28;87671;-46
2024/01/23 13:09:22;;;;;;;;;;;-3.80;90.00;;;;;;5008598;28;86981;-45
2024/01/23 13:11:48;;;;;;;;;;;-3.80;90.10;;;;;;5008131;28;87982;-48
2024/01/23 13:14:13;;;;;;;;;;;-3.70;90.20;;;;;;5002830;28;88468;-46
2024/01/23 13:16:39;;;;;;;;;;;-3.70;89.90;;;;;;5006665;28;86937;-47
2024/01/23 13:19:05;;;;;;;;;;;-3.70;89.80;;;;;;5008329;28;87934;-46
2024/01/23 13:21:31;;;;;;;;;;;-3.70;89.90;;;;;;5010834;28;88593;-47
2024/01/23 13:23:56;;;;;;;;;;;-3.60;89.90;;;;;;5008740;28;86983;-46
2024/01/23 13:26:22;;;;;;;;;;;-3.60;90.00;;;;;;5008348;28;87441;-47
2024/01/23 13:28:47;;;;;;;;;;;-3.60;89.80;;;;;;5003650;28;86280;-47
2024/01/23 13:31:15;;;;;;;;;;;-3.60;89.80;;;;;;5006621;28;86987;-47
2024/01/23 13:33:40;;;;;;;;;;;-3.60;89.70;;;;;;5005359;28;87570;-48
2024/01/23 13:36:07;;;;;;;;;;;-3.60;89.90;;;;;;5003187;28;87941;-46
2024/01/23 13:38:33;;;;;;;;;;;-3.60;90.00;;;;;;5005584;28;89217;-46
2024/01/23 13:40:58;;;;;;;;;;;-3.60;90.10;;;;;;5011046;28;86904;-47
2024/01/23 13:43:24;;;;;;;;;;;-3.60;90.10;;;;;;5007333;28;87033;-47
2024/01/23 13:45:49;;;;;;;;;;;-3.60;90.00;;;;;;5004548;28;87511;-47
2024/01/23 13:48:15;;;;;;;;;;;-3.50;90.00;;;;;;5007287;28;88600;-49
2024/01/23 13:50:41;;;;;;;;;;;-3.50;90.00;;;;;;5007090;28;86988;-47
2024/01/23 13:53:06;;;;;;;;;;;-3.50;90.00;;;;;;5008590;28;86815;-46
2024/01/23 13:55:32;;;;;;;;;;;-3.50;90.10;;;;;;5008506;28;86898;-46
2024/01/23 13:57:57;;;;;;;;;;;-3.40;89.80;;;;;;5006949;28;86878;-48
2024/01/23 14:00:25;;;;;;;;;;;-3.40;90.00;;;;;;5005872;28;88993;-46
2024/01/23 14:02:51;;;;;;;;;;;-3.50;90.00;;;;;;5011087;28;86972;-46
2024/01/23 14:05:16;;;;;;;;;;;-3.50;90.20;;;;;;5006692;28;88062;-47
2024/01/23 14:07:42;;;;;;;;;;;-3.50;90.20;;;;;;5007815;28;87241;-47
2024/01/23 14:10:17;;;;;;;;;;;-3.50;90.20;;;;;;5006728;28;87668;-46